Time;durP1;ratioP1;P1;durP2;ratioP2;P2;SDS_P1;SDS_P2;PMS_P1;PMS_P2;Temp;Humidity;BMP_temperature;BMP_pressure;BME280_temperature;BME280_humidity;BME280_pressure;Samples;Min_cycle;Max_cycle;Signal;HPM_P1;HPM_P2
2021/06/03 00:01:13;;;;;;;9.85;6.40;;;16.60;99.90;;;;;;5007793;28;20466;-90
2021/06/03 00:03:39;;;;;;;8.27;6.25;;;16.60;99.90;;;;;;5027172;28;20129;-92
2021/06/03 00:06:06;;;;;;;9.95;7.05;;;16.60;99.90;;;;;;5021483;28;20112;-92
2021/06/03 00:08:32;;;;;;;10.55;7.25;;;16.60;99.90;;;;;;5017379;28;20069;-94
2021/06/03 00:11:03;;;;;;;8.75;6.40;;;16.50;99.90;;;;;;5041433;28;20796;-90
2021/06/03 00:13:31;;;;;;;10.02;6.45;;;16.50;99.90;;;;;;5035858;28;20076;-91
2021/06/03 00:15:59;;;;;;;13.00;7.07;;;16.50;99.90;;;;;;5047753;28;20116;-91
2021/06/03 00:18:25;;;;;;;14.73;7.13;;;16.50;99.90;;;;;;5039422;28;20072;-93
2021/06/03 00:20:52;;;;;;;9.68;6.30;;;16.40;99.90;;;;;;5033333;28;20090;-92
2021/06/03 00:23:18;;;;;;;9.88;6.05;;;16.40;99.90;;;;;;5011157;28;20048;-92
2021/06/03 00:25:44;;;;;;;12.13;6.78;;;16.40;99.90;;;;;;5038614;28;20049;-91
2021/06/03 00:28:10;;;;;;;10.30;7.03;;;16.30;99.90;;;;;;5032847;28;20064;-90
2021/06/03 00:30:36;;;;;;;10.65;6.90;;;16.30;99.90;;;;;;5032577;28;20509;-92
2021/06/03 00:33:02;;;;;;;10.55;6.75;;;16.30;99.90;;;;;;5017944;28;20474;-89
2021/06/03 00:35:28;;;;;;;15.50;7.32;;;16.20;99.90;;;;;;5033969;28;20366;-92
2021/06/03 00:37:54;;;;;;;10.70;6.55;;;16.10;99.90;;;;;;5027195;28;20052;-90
2021/06/03 00:40:21;;;;;;;9.15;7.43;;;16.10;99.90;;;;;;5031730;28;20071;-91
2021/06/03 00:42:48;;;;;;;13.77;7.97;;;16.00;99.90;;;;;;5030898;28;20427;-91
2021/06/03 00:45:21;;;;;;;9.75;7.68;;;16.00;99.90;;;;;;5030998;28;20124;-90
2021/06/03 00:47:47;;;;;;;10.82;7.20;;;15.90;99.90;;;;;;5031102;28;20050;-91
2021/06/03 00:50:20;;;;;;;12.32;7.63;;;15.80;99.90;;;;;;5031187;28;20049;-93
2021/06/03 00:52:46;;;;;;;12.63;7.60;;;15.80;99.90;;;;;;5022493;28;20045;-91
2021/06/03 00:55:13;;;;;;;12.60;6.80;;;15.70;99.90;;;;;;5030811;28;20045;-91
2021/06/03 00:57:39;;;;;;;15.02;7.07;;;15.60;99.90;;;;;;5039671;28;20493;-91
2021/06/03 01:00:11;;;;;;;11.70;7.65;;;15.50;99.90;;;;;;5017520;28;20136;-90
2021/06/03 01:02:37;;;;;;;12.05;7.53;;;15.40;99.90;;;;;;5018449;28;20041;-92
2021/06/03 01:05:13;;;;;;;10.40;7.20;;;15.30;99.90;;;;;;5014869;28;20128;-91
2021/06/03 01:07:40;;;;;;;12.57;7.40;;;15.20;99.90;;;;;;5033034;28;20489;-92
2021/06/03 01:10:17;;;;;;;9.63;7.35;;;15.10;99.90;;;;;;5029809;28;20088;-90
2021/06/03 01:13:08;;;;;;;12.27;7.72;;;15.00;99.90;;;;;;5032494;28;20041;-91
2021/06/03 01:15:41;;;;;;;9.63;7.38;;;14.90;99.90;;;;;;5043376;28;20392;-91
2021/06/03 01:18:09;;;;;;;8.70;6.70;;;14.80;99.90;;;;;;5029777;28;20103;-92
2021/06/03 01:20:36;;;;;;;8.68;7.38;;;14.70;99.90;;;;;;5030404;28;20394;-92
2021/06/03 01:23:23;;;;;;;9.35;7.20;;;14.70;99.90;;;;;;5034494;28;20042;-91
2021/06/03 01:25:50;;;;;;;8.02;7.22;;;14.70;99.90;;;;;;5048620;28;20435;-91
2021/06/03 01:28:17;;;;;;;11.80;7.05;;;14.60;99.90;;;;;;5031612;28;20037;-90
2021/06/03 01:30:50;;;;;;;13.60;7.57;;;14.60;99.90;;;;;;5035210;28;20049;-89
2021/06/03 01:33:19;;;;;;;11.10;8.07;;;14.50;99.90;;;;;;5037475;28;20042;-90
2021/06/03 01:35:49;;;;;;;12.73;7.97;;;14.50;99.90;;;;;;5031522;28;20048;-90
2021/06/03 01:38:17;;;;;;;;;;;14.50;99.90;;;;;;5039562;28;20497;-91
2021/06/03 01:40:46;;;;;;;15.55;8.60;;;14.50;99.90;;;;;;5043829;28;20135;-89
2021/06/03 01:43:14;;;;;;;13.52;8.85;;;14.40;99.90;;;;;;5035568;28;20041;-91
2021/06/03 01:45:41;;;;;;;10.20;7.75;;;14.40;99.90;;;;;;5043823;28;20059;-91
2021/06/03 01:48:11;;;;;;;12.45;7.63;;;14.40;99.90;;;;;;5024278;28;20483;-91
2021/06/03 01:50:40;;;;;;;8.55;7.40;;;14.40;99.90;;;;;;5025151;28;20092;-90
2021/06/03 01:53:06;;;;;;;12.55;7.10;;;14.40;99.90;;;;;;5030304;28;20374;-90
2021/06/03 01:55:32;;;;;;;11.68;7.22;;;14.40;99.90;;;;;;5024644;28;20406;-94
2021/06/03 01:58:00;;;;;;;10.70;7.55;;;14.50;99.90;;;;;;5008140;28;20042;-89
2021/06/03 02:00:26;;;;;;;9.63;6.95;;;14.50;99.90;;;;;;5036636;28;20040;-90
2021/06/03 02:02:52;;;;;;;9.73;7.80;;;14.50;99.90;;;;;;5036825;28;20045;-91
2021/06/03 02:05:18;;;;;;;11.55;7.00;;;14.50;99.90;;;;;;5033727;28;20132;-90
2021/06/03 02:07:44;;;;;;;8.52;7.20;;;14.50;99.90;;;;;;5020799;28;20049;-91
2021/06/03 02:10:12;;;;;;;10.05;7.32;;;14.50;99.90;;;;;;5046716;28;20072;-91
2021/06/03 02:12:45;;;;;;;9.45;6.78;;;14.60;99.90;;;;;;5035345;28;20072;-92
2021/06/03 02:15:12;;;;;;;13.50;7.03;;;14.50;99.90;;;;;;5033742;28;20474;-91
2021/06/03 02:17:47;;;;;;;11.05;6.18;;;14.60;99.90;;;;;;5019566;28;20071;-91
2021/06/03 02:20:17;;;;;;;8.77;6.40;;;14.60;99.90;;;;;;5044303;28;20482;-91
2021/06/03 02:22:47;;;;;;;7.93;7.13;;;14.60;99.90;;;;;;5032778;28;20077;-91
2021/06/03 02:25:13;;;;;;;6.40;5.57;;;14.60;99.90;;;;;;5026684;28;20042;-91
2021/06/03 02:27:39;;;;;;;8.45;5.80;;;14.70;99.90;;;;;;5030308;28;20091;-91
2021/06/03 02:30:12;;;;;;;7.57;5.55;;;14.60;99.90;;;;;;5034557;28;20124;-91
2021/06/03 02:32:40;;;;;;;7.07;5.70;;;14.70;99.90;;;;;;5047857;28;20052;-91
2021/06/03 02:35:10;;;;;;;5.75;4.97;;;14.70;99.90;;;;;;5021494;28;20041;-91
2021/06/03 02:37:41;;;;;;;11.77;5.50;;;14.70;99.90;;;;;;5033830;28;20132;-92
2021/06/03 02:40:10;;;;;;;14.85;5.40;;;14.70;99.90;;;;;;5012975;28;20038;-90
2021/06/03 02:42:39;;;;;;;6.50;5.25;;;14.70;99.90;;;;;;5025357;28;20045;-93
2021/06/03 02:45:11;;;;;;;6.33;5.73;;;14.70;99.90;;;;;;5063096;28;20132;-90
2021/06/03 02:47:38;;;;;;;9.02;5.60;;;14.60;99.90;;;;;;5024576;28;20041;-93
2021/06/03 02:50:07;;;;;;;11.88;6.15;;;14.60;99.90;;;;;;5032971;28;20053;-90
2021/06/03 02:52:33;;;;;;;8.90;5.28;;;14.50;99.90;;;;;;5044389;28;20045;-91
2021/06/03 02:54:59;;;;;;;6.70;5.50;;;14.40;99.90;;;;;;5035661;28;20542;-91
2021/06/03 02:57:25;;;;;;;8.98;6.20;;;14.40;99.90;;;;;;5036081;28;20037;-90
2021/06/03 02:59:51;;;;;;;6.63;5.40;;;14.40;99.90;;;;;;5039082;28;20059;-89
2021/06/03 03:02:16;;;;;;;6.68;5.20;;;14.30;99.90;;;;;;5036339;28;20473;-91
2021/06/03 03:04:42;;;;;;;5.80;5.15;;;14.30;99.90;;;;;;5031503;28;20048;-89
2021/06/03 03:07:08;;;;;;;6.35;4.53;;;14.20;99.90;;;;;;5029470;28;20044;-89
2021/06/03 03:09:34;;;;;;;11.40;5.00;;;14.10;99.90;;;;;;5016030;28;20095;-89
2021/06/03 03:12:00;;;;;;;5.55;5.05;;;14.10;99.90;;;;;;5045424;28;20044;-91
2021/06/03 03:14:26;;;;;;;5.93;5.32;;;14.10;99.90;;;;;;5021224;28;20059;-89
2021/06/03 03:16:51;;;;;;;12.50;6.03;;;14.10;99.90;;;;;;5039649;28;20493;-91
2021/06/03 03:19:17;;;;;;;10.48;5.40;;;14.10;99.90;;;;;;5020338;28;20102;-90
2021/06/03 03:21:43;;;;;;;6.72;5.63;;;14.00;99.90;;;;;;5017033;28;20488;-92
2021/06/03 03:24:09;;;;;;;6.50;5.90;;;14.00;99.90;;;;;;5019829;28;20073;-91
2021/06/03 03:26:35;;;;;;;5.50;5.00;;;14.00;99.90;;;;;;5040237;28;20548;-91
2021/06/03 03:29:00;;;;;;;5.60;4.97;;;13.90;99.90;;;;;;5056370;28;20052;-89
2021/06/03 03:31:26;;;;;;;6.65;5.50;;;13.90;99.90;;;;;;5005826;28;20431;-90
2021/06/03 03:33:52;;;;;;;5.95;5.25;;;14.00;99.90;;;;;;5034324;28;20053;-90
2021/06/03 03:36:18;;;;;;;9.60;6.03;;;13.90;99.90;;;;;;5019825;28;20154;-92
2021/06/03 03:38:44;;;;;;;5.47;5.00;;;13.90;99.90;;;;;;5031787;28;20136;-93
2021/06/03 03:41:09;;;;;;;7.00;5.75;;;13.90;99.90;;;;;;5018410;28;20041;-91
2021/06/03 03:43:35;;;;;;;5.85;5.25;;;13.90;99.90;;;;;;5006319;28;20047;-92
2021/06/03 03:46:02;;;;;;;5.43;4.75;;;13.90;99.90;;;;;;5040307;28;20106;-89
2021/06/03 03:48:28;;;;;;;18.35;5.32;;;13.90;99.90;;;;;;5037203;28;20095;-92
2021/06/03 03:50:53;;;;;;;9.90;4.85;;;14.00;99.90;;;;;;5031840;28;20048;-90
2021/06/03 03:53:21;;;;;;;13.80;5.00;;;14.00;99.90;;;;;;5054577;28;20048;-90
2021/06/03 03:55:46;;;;;;;6.55;5.45;;;14.00;99.90;;;;;;5021183;28;20116;-91
2021/06/03 03:58:13;;;;;;;7.38;5.32;;;14.10;99.90;;;;;;5034877;28;20556;-91
2021/06/03 04:00:39;;;;;;;6.72;5.07;;;14.10;99.90;;;;;;5034760;28;20071;-90
2021/06/03 04:03:06;;;;;;;8.38;5.18;;;14.10;99.90;;;;;;5017898;28;20069;-90
2021/06/03 04:05:32;;;;;;;4.70;4.40;;;14.20;99.90;;;;;;5028063;28;20050;-90
2021/06/03 04:07:59;;;;;;;5.60;4.78;;;14.20;99.90;;;;;;4999856;28;20045;-92
2021/06/03 04:10:25;;;;;;;5.38;4.97;;;14.20;99.90;;;;;;5016926;28;20049;-92
2021/06/03 04:12:51;;;;;;;8.02;4.90;;;14.20;99.90;;;;;;5034390;28;20048;-92
2021/06/03 04:15:18;;;;;;;6.90;4.95;;;14.30;99.90;;;;;;5023679;28;20045;-93
2021/06/03 04:17:44;;;;;;;6.05;5.32;;;14.40;99.90;;;;;;5032522;28;20052;-94
2021/06/03 04:20:14;;;;;;;5.57;4.50;;;14.40;99.90;;;;;;5028759;28;20045;-92
2021/06/03 04:22:41;;;;;;;5.20;4.70;;;14.40;99.90;;;;;;5041474;28;20058;-93
2021/06/03 04:25:08;;;;;;;6.20;5.10;;;14.50;99.90;;;;;;5020579;28;20045;-92
2021/06/03 04:27:35;;;;;;;5.80;5.20;;;14.50;99.90;;;;;;5048688;28;20459;-93
2021/06/03 04:30:01;;;;;;;6.35;5.15;;;14.60;99.90;;;;;;5052523;28;20056;-92
2021/06/03 04:32:27;;;;;;;11.45;4.93;;;14.60;99.90;;;;;;5052080;28;20101;-93
2021/06/03 04:34:54;;;;;;;6.55;4.80;;;14.70;99.90;;;;;;5047613;28;20049;-92
2021/06/03 04:37:21;;;;;;;5.47;5.00;;;14.80;99.90;;;;;;5061844;28;20052;-92
2021/06/03 04:39:47;;;;;;;9.38;4.90;;;14.90;99.90;;;;;;5036502;28;20520;-94
2021/06/03 04:42:13;;;;;;;8.70;5.25;;;15.00;99.90;;;;;;5034538;28;20431;-93
2021/06/03 04:44:39;;;;;;;4.97;4.47;;;15.10;99.90;;;;;;5051623;28;20060;-93
2021/06/03 04:47:06;;;;;;;4.60;4.20;;;15.30;99.90;;;;;;5016610;28;20628;-91
2021/06/03 04:49:31;;;;;;;6.80;4.25;;;15.40;99.90;;;;;;5020625;28;20044;-92
2021/06/03 04:52:24;;;;;;;11.82;4.97;;;15.50;99.90;;;;;;5050760;28;20041;-92
2021/06/03 04:54:43;;;;;;;5.40;4.05;;;15.60;99.90;;;;;;5037009;28;20119;-92
2021/06/03 04:57:09;;;;;;;7.63;4.03;;;15.70;99.90;;;;;;5050995;28;20473;-92
2021/06/03 04:59:35;;;;;;;7.68;5.30;;;15.80;99.90;;;;;;5051489;28;20072;-92
2021/06/03 05:02:00;;;;;;;7.88;4.80;;;15.90;99.90;;;;;;5015168;28;20041;-93
2021/06/03 05:04:26;;;;;;;5.90;4.50;;;16.00;99.90;;;;;;5034169;28;20033;-92
2021/06/03 05:06:52;;;;;;;7.95;4.75;;;16.10;99.90;;;;;;5033483;28;20037;-92
2021/06/03 05:09:18;;;;;;;10.73;5.18;;;16.10;99.90;;;;;;5030185;28;20053;-93
2021/06/03 05:11:43;;;;;;;8.30;4.40;;;16.20;99.90;;;;;;5018725;28;20064;-92
2021/06/03 05:14:09;;;;;;;10.07;4.78;;;16.30;99.90;;;;;;5037250;28;20071;-93
2021/06/03 05:16:35;;;;;;;7.65;4.10;;;16.40;99.90;;;;;;5051725;28;20033;-92
2021/06/03 05:19:01;;;;;;;17.58;4.97;;;16.50;99.90;;;;;;5016582;28;20124;-91
2021/06/03 05:21:27;;;;;;;10.57;4.18;;;16.50;99.90;;;;;;5010872;28;20040;-92
2021/06/03 05:23:52;;;;;;;4.78;4.38;;;16.60;99.90;;;;;;5022759;28;20534;-91
2021/06/03 05:26:18;;;;;;;6.68;4.70;;;16.70;99.90;;;;;;5032305;28;20543;-92
2021/06/03 05:28:44;;;;;;;8.40;4.65;;;16.70;99.90;;;;;;5044170;28;20488;-93
2021/06/03 05:31:10;;;;;;;11.75;5.13;;;16.80;99.90;;;;;;5017069;28;20049;-93
2021/06/03 05:33:35;;;;;;;15.25;6.07;;;16.90;99.90;;;;;;5033893;28;20059;-92
2021/06/03 05:36:02;;;;;;;6.65;4.53;;;17.00;99.90;;;;;;5014287;28;20452;-94
2021/06/03 05:38:28;;;;;;;7.63;4.30;;;17.10;99.90;;;;;;5040584;28;20045;-94
2021/06/03 05:40:54;;;;;;;6.20;4.28;;;17.20;99.90;;;;;;5040894;28;20107;-94
2021/06/03 05:43:20;;;;;;;6.00;4.00;;;17.30;99.90;;;;;;5033495;28;20037;-92
2021/06/03 05:45:46;;;;;;;8.45;4.63;;;17.40;99.90;;;;;;5011145;28;20055;-94
2021/06/03 05:48:12;;;;;;;9.95;4.32;;;17.50;99.90;;;;;;5039141;28;20041;-94
2021/06/03 05:50:38;;;;;;;8.23;4.32;;;17.70;99.90;;;;;;5008440;28;20067;-93
2021/06/03 05:53:07;;;;;;;7.22;4.30;;;17.80;99.90;;;;;;5009878;28;20422;-94
2021/06/03 05:55:33;;;;;;;5.30;4.47;;;18.00;99.90;;;;;;5033696;28;20098;-93
2021/06/03 05:57:59;;;;;;;8.85;4.90;;;18.10;99.90;;;;;;5033536;28;20056;-93
2021/06/03 06:00:32;;;;;;;12.90;4.85;;;18.20;99.90;;;;;;5026421;28;20042;-93
2021/06/03 06:03:05;;;;;;;9.07;5.07;;;18.30;99.90;;;;;;5053269;28;20053;-92
2021/06/03 06:08:16;;;;;;;5.68;5.10;;;18.50;99.90;;;;;;5020262;28;20056;-94
2021/06/03 06:10:43;;;;;;;11.77;5.40;;;18.60;99.90;;;;;;5046978;28;20480;-93
2021/06/03 06:13:09;;;;;;;7.97;4.78;;;18.60;99.90;;;;;;5044650;28;20046;-95
2021/06/03 06:15:37;;;;;;;7.72;5.15;;;18.70;99.90;;;;;;5040611;28;20036;-93
2021/06/03 06:18:04;;;;;;;16.40;5.80;;;18.70;99.90;;;;;;5037978;28;20044;-94
2021/06/03 06:20:30;;;;;;;7.18;5.50;;;18.80;99.90;;;;;;5016856;28;20082;-93
2021/06/03 06:22:58;;;;;;;10.73;5.03;;;18.80;99.90;;;;;;5005374;28;20725;-94
2021/06/03 06:25:24;;;;;;;5.28;4.75;;;18.90;99.90;;;;;;5036432;28;20047;-94
2021/06/03 06:27:51;;;;;;;8.20;5.10;;;19.00;99.90;;;;;;5020318;28;20116;-94
2021/06/03 06:30:17;;;;;;;6.40;5.25;;;19.00;99.90;;;;;;5020249;28;20504;-94
2021/06/03 06:32:43;;;;;;;13.95;4.75;;;19.10;99.90;;;;;;5050264;28;20048;-94
2021/06/03 06:35:11;;;;;;;8.00;4.85;;;19.20;99.90;;;;;;5049272;28;20183;-95
2021/06/03 06:37:38;;;;;;;5.15;4.15;;;19.30;99.90;;;;;;5026895;28;20508;-94
2021/06/03 06:40:05;;;;;;;10.15;4.35;;;19.50;99.90;;;;;;5035656;28;20041;-93
2021/06/03 06:42:33;;;;;;;4.60;4.13;;;19.50;99.90;;;;;;5048273;28;20174;-94
2021/06/03 06:45:06;;;;;;;6.10;4.82;;;19.70;99.90;;;;;;5049579;28;20053;-94
2021/06/03 06:47:35;;;;;;;10.40;5.75;;;19.80;99.90;;;;;;5038331;28;20094;-94
2021/06/03 06:50:06;;;;;;;13.70;5.40;;;20.00;99.90;;;;;;5035565;28;20040;-93
2021/06/03 06:52:32;;;;;;;9.50;5.00;;;20.10;99.90;;;;;;5054061;28;20394;-93
2021/06/03 06:54:59;;;;;;;5.28;4.78;;;20.30;99.90;;;;;;5032803;28;20159;-93
2021/06/03 06:57:25;;;;;;;10.20;5.50;;;20.50;99.90;;;;;;5031460;28;20469;-94
2021/06/03 06:59:51;;;;;;;9.43;5.20;;;20.60;99.90;;;;;;5031415;28;20053;-92
2021/06/03 07:02:18;;;;;;;5.97;5.00;;;20.70;99.90;;;;;;5035538;28;20037;-93
2021/06/03 07:04:44;;;;;;;6.65;4.80;;;20.90;99.90;;;;;;5017445;28;20516;-93
2021/06/03 07:07:10;;;;;;;6.10;4.68;;;21.10;99.90;;;;;;5009524;28;20045;-93
2021/06/03 07:09:37;;;;;;;7.30;5.15;;;21.30;99.90;;;;;;5024090;28;20041;-92
2021/06/03 07:12:04;;;;;;;7.13;4.43;;;21.40;99.90;;;;;;5031733;28;20045;-91
2021/06/03 07:14:30;;;;;;;10.93;4.60;;;21.50;99.90;;;;;;5026833;28;20049;-93
2021/06/03 07:16:56;;;;;;;8.05;4.28;;;21.50;99.90;;;;;;5029909;28;20037;-93
2021/06/03 07:19:22;;;;;;;6.20;4.00;;;21.60;99.90;;;;;;5018867;28;20035;-93
2021/06/03 07:21:48;;;;;;;6.57;4.38;;;21.70;99.90;;;;;;5007017;28;20041;-92
2021/06/03 07:24:14;;;;;;;9.18;4.47;;;21.80;99.90;;;;;;5025367;28;20043;-95
2021/06/03 07:26:40;;;;;;;9.32;3.67;;;21.90;99.90;;;;;;5015147;28;20184;-94
2021/06/03 07:29:06;;;;;;;6.10;4.18;;;22.00;99.90;;;;;;5035132;28;20473;-93
2021/06/03 07:31:35;;;;;;;18.40;4.13;;;22.10;99.90;;;;;;5029517;28;20123;-95
2021/06/03 07:34:02;;;;;;;;;;;22.30;99.90;;;;;;5034350;28;20489;-94
2021/06/03 07:36:28;;;;;;;4.88;3.83;;;22.50;99.90;;;;;;5048711;28;20296;-93
2021/06/03 07:38:54;;;;;;;5.38;4.35;;;22.60;99.90;;;;;;5028698;28;20041;-93
2021/06/03 07:41:20;;;;;;;7.47;4.07;;;22.80;99.90;;;;;;5001454;28;20048;-93
2021/06/03 07:43:46;;;;;;;8.02;4.40;;;22.90;99.90;;;;;;5008810;28;20041;-92
2021/06/03 07:46:13;;;;;;;6.30;3.95;;;22.90;99.90;;;;;;5041209;28;20595;-91
2021/06/03 07:48:39;;;;;;;6.18;4.20;;;22.80;99.90;;;;;;5003034;28;20045;-93
2021/06/03 07:51:06;;;;;;;6.78;4.28;;;22.90;99.90;;;;;;4997501;28;20397;-93
2021/06/03 07:53:32;;;;;;;4.85;4.22;;;23.00;99.90;;;;;;5036828;28;20064;-92
2021/06/03 07:55:58;;;;;;;10.10;4.68;;;23.00;99.90;;;;;;5002922;28;20059;-94
2021/06/03 07:58:24;;;;;;;8.80;4.68;;;23.10;99.90;;;;;;5012254;28;20481;-93
2021/06/03 08:00:50;;;;;;;7.43;4.40;;;23.20;99.90;;;;;;5025923;28;20042;-94
2021/06/03 08:03:16;;;;;;;7.13;4.43;;;23.20;99.90;;;;;;5036617;28;20050;-93
2021/06/03 08:05:44;;;;;;;6.70;5.18;;;23.20;99.90;;;;;;5008323;28;20049;-93
2021/06/03 08:08:10;;;;;;;8.13;4.68;;;23.30;99.90;;;;;;5031526;28;20367;-93
2021/06/03 08:10:39;;;;;;;7.70;5.40;;;23.30;99.90;;;;;;5021120;28;20067;-93
2021/06/03 08:13:08;;;;;;;9.45;4.80;;;23.40;99.90;;;;;;5042715;28;20481;-94
2021/06/03 08:15:35;;;;;;;17.00;4.90;;;23.30;99.90;;;;;;5025410;28;20039;-93
2021/06/03 08:18:02;;;;;;;7.75;4.68;;;23.40;99.90;;;;;;5028836;28;20171;-94
2021/06/03 08:20:41;;;;;;;4.88;4.47;;;23.30;99.90;;;;;;5034784;28;20118;-93
2021/06/03 08:23:08;;;;;;;7.80;5.50;;;23.30;99.90;;;;;;5027288;28;20076;-94
2021/06/03 08:25:35;;;;;;;5.47;4.50;;;23.20;99.90;;;;;;5027450;28;20117;-93
2021/06/03 08:28:02;;;;;;;11.45;5.05;;;23.20;99.90;;;;;;5033141;28;20128;-94
2021/06/03 08:30:31;;;;;;;5.43;4.53;;;23.20;99.90;;;;;;5049756;28;20558;-94
2021/06/03 08:32:58;;;;;;;9.23;5.22;;;23.20;99.90;;;;;;5016610;28;20045;-94
2021/06/03 08:35:44;;;;;;;10.93;4.28;;;23.30;99.90;;;;;;4990815;28;20047;-94
2021/06/03 08:38:30;;;;;;;8.30;4.90;;;23.40;99.90;;;;;;5019092;28;20128;-95
2021/06/03 08:40:59;;;;;;;9.15;4.68;;;23.50;99.90;;;;;;5033134;28;20116;-95
2021/06/03 08:43:30;;;;;;;8.75;4.93;;;23.70;99.90;;;;;;5049829;28;20072;-95
2021/06/03 08:45:57;;;;;;;8.35;5.05;;;24.00;99.90;;;;;;5031730;28;20516;-94
2021/06/03 08:48:24;;;;;;;11.15;4.82;;;24.10;99.90;;;;;;5013451;28;20085;-92
2021/06/03 08:50:53;;;;;;;6.75;4.50;;;24.10;99.90;;;;;;5023825;28;20472;-95
2021/06/03 08:53:19;;;;;;;4.80;4.28;;;24.10;99.90;;;;;;5015323;28;20045;-93
2021/06/03 08:58:31;;;;;;;6.03;4.55;;;24.20;99.90;;;;;;5050715;28;20045;-93
2021/06/03 09:00:59;;;;;;;6.65;4.90;;;24.10;99.90;;;;;;5036602;28;20485;-93
2021/06/03 09:03:28;;;;;;;6.88;4.88;;;24.00;99.90;;;;;;5034630;28;20075;-95
2021/06/03 09:05:54;;;;;;;11.20;5.20;;;24.00;99.90;;;;;;5021847;28;20049;-94
2021/06/03 09:08:26;;;;;;;11.23;5.28;;;24.00;99.90;;;;;;5044099;28;20136;-93
2021/06/03 09:11:05;;;;;;;9.90;6.22;;;24.10;99.90;;;;;;5047890;28;20032;-93
2021/06/03 09:13:37;;;;;;;10.40;5.38;;;24.20;99.90;;;;;;5012753;28;20048;-91
2021/06/03 09:16:09;;;;;;;7.13;5.50;;;24.40;99.90;;;;;;5046450;28;20468;-95
2021/06/03 09:18:37;;;;;;;9.45;6.18;;;24.60;99.90;;;;;;5024390;28;20091;-92
2021/06/03 09:21:24;;;;;;;7.05;5.47;;;24.60;99.90;;;;;;5030810;28;20041;-94
2021/06/03 09:24:05;;;;;;;10.15;5.15;;;24.80;99.90;;;;;;5026375;28;20388;-93
2021/06/03 09:26:34;;;;;;;5.95;5.30;;;25.00;99.90;;;;;;5038025;28;20122;-92
2021/06/03 09:29:03;;;;;;;6.25;4.55;;;25.10;99.90;;;;;;5034011;28;20154;-91
2021/06/03 09:31:37;;;;;;;11.02;7.07;;;25.30;99.90;;;;;;5032307;28;20037;-94
2021/06/03 09:34:16;;;;;;;8.35;4.80;;;25.30;99.90;;;;;;5052121;28;20489;-93
2021/06/03 09:37:00;;;;;;;5.40;4.10;;;25.30;99.90;;;;;;5023345;28;20037;-93
2021/06/03 09:39:38;;;;;;;8.15;6.13;;;25.40;99.90;;;;;;5036943;28;20037;-93
2021/06/03 09:42:11;;;;;;;11.32;5.82;;;25.50;99.90;;;;;;5050564;28;20044;-94
2021/06/03 09:44:52;;;;;;;9.57;5.57;;;25.50;99.90;;;;;;5037069;28;20090;-93
2021/06/03 09:47:23;;;;;;;8.10;5.95;;;25.50;99.90;;;;;;5033493;28;20405;-90
2021/06/03 09:49:56;;;;;;;7.18;5.03;;;25.50;99.90;;;;;;5022251;28;20071;-91
2021/06/03 09:52:29;;;;;;;5.47;4.95;;;25.70;99.90;;;;;;5063359;28;20051;-93
2021/06/03 09:55:00;;;;;;;8.35;4.90;;;26.00;99.90;;;;;;5017348;28;20048;-91
2021/06/03 09:57:37;;;;;;;11.27;5.88;;;26.20;99.90;;;;;;5034280;28;20095;-91
2021/06/03 10:00:11;;;;;;;7.28;5.85;;;26.20;99.90;;;;;;5024853;28;20045;-93
2021/06/03 10:02:38;;;;;;;10.27;6.10;;;26.20;99.90;;;;;;5052986;28;20045;-93
2021/06/03 10:05:16;;;;;;;13.35;6.13;;;26.00;99.90;;;;;;5026478;28;20048;-93
2021/06/03 10:08:05;;;;;;;7.13;5.97;;;26.00;99.90;;;;;;5035070;28;20049;-93
2021/06/03 10:10:35;;;;;;;5.80;5.13;;;26.10;99.90;;;;;;5031016;28;20403;-93
2021/06/03 10:13:09;;;;;;;7.20;5.57;;;26.20;99.90;;;;;;5026901;28;20152;-93
2021/06/03 10:15:38;;;;;;;15.30;6.10;;;26.30;99.90;;;;;;5028665;28;20037;-93
2021/06/03 10:18:07;;;;;;;6.65;5.95;;;26.40;99.90;;;;;;5030388;28;20496;-93
2021/06/03 10:20:37;;;;;;;21.20;6.93;;;26.50;99.90;;;;;;5039271;28;20515;-93
2021/06/03 10:23:05;;;;;;;10.43;6.00;;;26.80;99.90;;;;;;5025568;28;20053;-92
2021/06/03 10:25:33;;;;;;;8.97;5.80;;;26.70;99.90;;;;;;5032482;28;20114;-92
2021/06/03 10:28:01;;;;;;;7.03;6.07;;;26.70;99.90;;;;;;5015826;28;20078;-92
2021/06/03 10:30:29;;;;;;;10.30;5.93;;;26.80;99.90;;;;;;5017706;28;20045;-92
2021/06/03 10:32:59;;;;;;;8.73;6.73;;;26.60;99.90;;;;;;5045460;28;20106;-92
2021/06/03 10:35:30;;;;;;;11.90;7.13;;;26.70;99.90;;;;;;5039706;28;20445;-92
2021/06/03 10:37:58;;;;;;;9.60;6.53;;;26.80;99.90;;;;;;5023552;28;20090;-92
2021/06/03 10:40:30;;;;;;;8.88;6.45;;;26.90;99.90;;;;;;5027946;28;20061;-93
2021/06/03 10:42:58;;;;;;;14.27;6.28;;;27.00;99.90;;;;;;5041251;28;20037;-92
2021/06/03 10:45:26;;;;;;;12.15;6.55;;;27.30;99.90;;;;;;5051776;28;20053;-92
2021/06/03 10:47:53;;;;;;;9.80;6.30;;;27.30;99.90;;;;;;5022393;28;20040;-92
2021/06/03 10:50:26;;;;;;;8.15;6.55;;;27.30;99.90;;;;;;5042063;28;20040;-92
2021/06/03 10:52:52;;;;;;;8.05;5.85;;;27.40;99.90;;;;;;5024861;28;20048;-92
2021/06/03 10:55:31;;;;;;;11.80;6.70;;;27.50;99.90;;;;;;5012899;28;20048;-92
2021/06/03 10:58:00;;;;;;;6.93;6.20;;;27.40;99.90;;;;;;5025914;28;20056;-92
2021/06/03 11:00:42;;;;;;;8.00;6.28;;;27.40;99.90;;;;;;5032515;28;20041;-93
2021/06/03 11:03:17;;;;;;;13.07;7.22;;;27.50;99.90;;;;;;5054855;28;20049;-91
2021/06/03 11:05:49;;;;;;;10.30;6.32;;;27.50;99.90;;;;;;5037279;28;20392;-91
2021/06/03 11:08:38;;;;;;;12.20;6.00;;;27.40;99.90;;;;;;5060686;28;20032;-89
2021/06/03 11:11:10;;;;;;;;;;;27.30;99.90;;;;;;5042532;28;20041;-89
2021/06/03 11:13:37;;;;;;;10.07;5.75;;;27.30;99.90;;;;;;5032758;28;20691;-92
2021/06/03 11:16:09;;;;;;;10.75;6.28;;;27.20;99.90;;;;;;5034076;28;20492;-93
2021/06/03 11:18:46;;;;;;;10.00;7.15;;;27.10;99.90;;;;;;5040542;28;20654;-89
2021/06/03 11:21:37;;;;;;;7.93;6.05;;;27.00;99.90;;;;;;5024237;28;20048;-91
2021/06/03 11:24:37;;;;;;;7.20;5.45;;;27.20;99.90;;;;;;5028605;28;20045;-93
2021/06/03 11:27:05;;;;;;;13.05;6.20;;;27.40;99.90;;;;;;5042636;28;20059;-92
2021/06/03 11:29:33;;;;;;;7.63;5.30;;;27.60;99.90;;;;;;5032237;28;20045;-92
2021/06/03 11:32:02;;;;;;;9.68;5.68;;;27.80;99.90;;;;;;5044154;28;20041;-94
2021/06/03 11:34:43;;;;;;;7.75;5.88;;;27.70;99.90;;;;;;5040715;28;20754;-93
2021/06/03 11:37:11;;;;;;;7.82;5.95;;;27.40;99.90;;;;;;5044436;28;20197;-90
2021/06/03 11:39:42;;;;;;;10.70;5.95;;;27.50;99.90;;;;;;5033012;28;20045;-92
2021/06/03 11:42:55;;;;;;;10.35;5.93;;;27.70;99.90;;;;;;5050647;28;20469;-91
2021/06/03 11:45:31;;;;;;;7.82;5.57;;;27.80;99.90;;;;;;4987194;28;20207;-91
2021/06/03 11:48:00;;;;;;;10.43;5.38;;;27.80;99.90;;;;;;5033707;28;20064;-91
2021/06/03 11:50:26;;;;;;;;;;;27.80;99.90;;;;;;5032783;28;20477;-92
2021/06/03 11:52:55;;;;;;;11.95;5.28;;;27.80;99.90;;;;;;5028762;28;19925;-91
2021/06/03 11:55:37;;;;;;;8.73;4.65;;;27.90;99.90;;;;;;5045636;28;20041;-91
2021/06/03 11:58:15;;;;;;;6.10;5.28;;;28.20;99.90;;;;;;5023798;28;20087;-91
2021/06/03 12:00:58;;;;;;;9.73;4.90;;;28.40;99.90;;;;;;5020892;28;20049;-92
2021/06/03 12:03:32;;;;;;;6.65;4.60;;;28.60;99.90;;;;;;5048559;28;20678;-91
2021/06/03 12:06:04;;;;;;;8.65;4.95;;;28.80;99.10;;;;;;5045431;28;20457;-91
2021/06/03 12:08:37;;;;;;;7.35;5.05;;;28.50;98.40;;;;;;5044603;28;20041;-91
2021/06/03 12:11:05;;;;;;;18.15;5.43;;;28.40;98.50;;;;;;5031493;28;20079;-91
2021/06/03 12:13:32;;;;;;;5.40;3.33;;;28.20;98.30;;;;;;5049548;28;20647;-90
2021/06/03 12:15:58;;;;;;;14.80;4.50;;;28.40;99.30;;;;;;5036272;28;20466;-91
2021/06/03 12:18:31;;;;;;;5.07;4.30;;;28.30;98.70;;;;;;5041434;28;20048;-90
2021/06/03 12:20:57;;;;;;;6.05;3.67;;;28.10;98.30;;;;;;5051868;28;20048;-90
2021/06/03 12:23:23;;;;;;;7.60;4.03;;;28.10;98.80;;;;;;5035503;28;20051;-90
2021/06/03 12:25:49;;;;;;;11.40;4.50;;;28.00;99.90;;;;;;5033789;28;20393;-89
2021/06/03 12:28:15;;;;;;;16.73;4.85;;;28.00;99.90;;;;;;5026379;28;20090;-90
2021/06/03 12:30:43;;;;;;;17.65;5.50;;;27.70;99.90;;;;;;5031886;28;20048;-91
2021/06/03 12:33:24;;;;;;;19.70;6.03;;;27.50;99.90;;;;;;5034355;28;20051;-91
2021/06/03 12:36:03;;;;;;;23.48;6.30;;;27.30;99.90;;;;;;5053569;28;20049;-91
2021/06/03 12:38:32;;;;;;;15.05;5.60;;;26.30;99.90;;;;;;5015792;28;20041;-90
2021/06/03 12:41:00;;;;;;;26.27;9.15;;;24.90;99.90;;;;;;5038180;28;20045;-90
2021/06/03 12:43:35;;;;;;;36.22;11.32;;;24.00;99.90;;;;;;5038178;28;20090;-91
2021/06/03 12:46:01;;;;;;;39.83;10.18;;;23.20;99.90;;;;;;5050323;28;20059;-92
2021/06/03 12:48:31;;;;;;;23.52;7.95;;;23.00;99.90;;;;;;5022054;28;20103;-91
2021/06/03 12:50:57;;;;;;;;;;;22.90;99.90;;;;;;5001357;28;20193;-90
2021/06/03 12:53:23;;;;;;;26.65;8.00;;;22.60;99.90;;;;;;5050885;28;19970;-92
2021/06/03 12:55:49;;;;;;;14.68;7.00;;;22.90;99.90;;;;;;5024748;28;20033;-90
2021/06/03 12:58:18;;;;;;;19.08;7.82;;;23.00;99.90;;;;;;5050972;28;20041;-90
2021/06/03 13:00:46;;;;;;;18.10;8.10;;;22.80;99.90;;;;;;5037729;28;20478;-90